Airfield :







YOU CAN JOIN US ON...

 
LOGIN :

Register | Disclaimer

   EN    FR    IT 

 









Legend :    VFR   Marginal VFR   IFR   Intensive IFR   Very Intensive IFR
Visi :
Ceiling :
>= 8 km
>= 3000ft
5 to 8 km
1000 to 3000 ft
1500m to 5 km
500 to 1000 ft
800 to 1500m
200 to 500 ft
< 800m
< 200 ft
Symbols :   Thunderstorms  Fog  Heavy snow  Heavy precipitations  Wind > 20 kt






- Airport Elevation : 235 ft
- IATA code : CCS


SVMI - Simon Bolivar

CURRENT METAR :
  • 030703Z AUTO 08000KT NCD 25/22 Q1016

EXPIRED METARs :
  • 030603Z AUTO 25001KT NCD 25/23 Q1016
  • 030503Z AUTO 07002KT NCD 26/23 Q1016
  • 030500Z 00000KT 9999 FEW016 24/20 Q1014

TAF TAF SVMI
Valid from the 03 at 06:00 until the 04 at 06:00 UTC


030400Z 0306/0406 00000KT 9999 SCT016 TX32/0318Z TN21/0306Z
TEMPO 0306/0310 09005KT 9000 DZ BKN010
SVZM FIR / South America



MET'MAP, your aeronautical weather chart ! - Copyright ORBIFLY December 2007 - Disclaimer

ORBIFLY MET'MAP TEAM :

Programming & Development : Alexandra Zaïnal
Concept & original design : Baudouin d'Aumeries
Assistance for programming : Marc-Olivier Méhu
Technical & hardware support : Manuel Goepfert

Contact : metmap@orbifly.com




SOURCES & CREDITS :

   NOAA